createdAt,value
2022-08-01T00:02:56.527Z,100080.88
2022-08-01T00:07:59.313Z,100079.91
2022-08-01T00:13:02.016Z,100089.00
2022-08-01T00:18:06.450Z,100091.56
2022-08-01T00:23:09.218Z,100082.59
2022-08-01T00:28:12.583Z,100071.19
2022-08-01T00:33:16.741Z,100074.63
2022-08-01T00:38:19.514Z,100073.06
2022-08-01T00:43:22.249Z,100070.34
2022-08-01T00:48:26.438Z,100075.25
2022-08-01T00:53:50.658Z,100084.53
2022-08-01T00:58:52.192Z,100088.06
2022-08-01T01:03:59.079Z,100097.34
2022-08-01T01:09:17.218Z,100085.81
2022-08-01T01:14:25.693Z,100074.31
2022-08-01T01:19:32.304Z,100072.63
2022-08-01T01:24:40.435Z,100070.78
2022-08-01T01:30:00.437Z,100078.19
2022-08-01T01:35:04.537Z,100077.66
2022-08-01T01:40:08.985Z,100080.34
2022-08-01T01:45:13.067Z,100080.50
2022-08-01T01:50:15.968Z,100069.41
2022-08-01T01:55:18.769Z,100075.09
2022-08-01T02:00:23.103Z,100076.78
2022-08-01T02:05:25.893Z,100070.69
2022-08-01T02:10:29.306Z,100074.06
2022-08-01T02:15:34.014Z,100088.34
2022-08-01T02:20:36.864Z,100091.66
2022-08-01T02:26:10.626Z,100092.16
2022-08-01T02:31:07.116Z,100092.16
2022-08-01T02:36:32.468Z,100091.66
2022-08-01T02:41:32.858Z,100097.38
2022-08-01T02:46:39.534Z,100090.28
2022-08-01T02:51:42.282Z,100091.41
2022-08-01T02:56:45.052Z,100093.56
2022-08-01T03:01:49.547Z,100093.03
2022-08-01T03:06:53.043Z,100101.84
2022-08-01T03:11:56.030Z,100100.44
2022-08-01T03:17:00.224Z,100099.06
2022-08-01T03:22:04.519Z,100102.66
2022-08-01T03:27:07.969Z,100117.81
2022-08-01T03:32:12.412Z,100119.66
2022-08-01T03:37:17.679Z,100126.81
2022-08-01T03:42:22.689Z,100130.44
2022-08-01T03:47:28.396Z,100131.41
2022-08-01T03:52:31.468Z,100137.84
2022-08-01T03:57:36.132Z,100144.44
2022-08-01T04:02:40.926Z,100148.66
2022-08-01T04:07:47.598Z,100149.44
2022-08-01T04:12:50.358Z,100162.25
2022-08-01T04:17:55.070Z,100161.94
2022-08-01T04:22:57.780Z,100156.13
2022-08-01T04:28:00.472Z,100167.72
2022-08-01T04:33:06.073Z,100172.25
2022-08-01T04:38:08.961Z,100175.81
2022-08-01T04:43:12.948Z,100182.66
2022-08-01T04:48:20.263Z,100174.84
2022-08-01T04:53:26.987Z,100188.41
2022-08-01T04:58:29.785Z,100192.06
2022-08-01T05:03:38.669Z,100195.34
2022-08-01T05:08:42.368Z,100193.75
2022-08-01T05:13:45.061Z,100188.50
2022-08-01T05:18:53.102Z,100202.41
2022-08-01T05:23:55.936Z,100209.66
2022-08-01T05:28:58.875Z,100202.19
2022-08-01T05:34:03.019Z,100201.59
2022-08-01T05:39:05.813Z,100189.34
2022-08-01T05:44:08.681Z,100203.78
2022-08-01T05:49:12.908Z,100200.25
2022-08-01T05:54:15.846Z,100205.22
2022-08-01T05:59:18.630Z,100201.44
2022-08-01T06:04:22.765Z,100198.91
2022-08-01T06:09:25.487Z,100211.47
2022-08-01T06:14:28.231Z,100205.84
2022-08-01T06:19:32.367Z,100207.91
2022-08-01T06:24:35.185Z,100205.22
2022-08-01T06:29:37.978Z,100211.91
2022-08-01T06:34:42.103Z,100212.53
2022-08-01T06:39:46.000Z,100215.81
2022-08-01T06:44:48.790Z,100221.19
2022-08-01T06:49:53.030Z,100232.06
2022-08-01T06:54:55.699Z,100223.63
2022-08-01T06:59:58.443Z,100218.13
2022-08-01T07:05:03.839Z,100228.50
2022-08-01T07:10:07.666Z,100228.75
2022-08-01T07:15:11.340Z,100234.94
2022-08-01T07:20:16.430Z,100238.84
2022-08-01T07:25:19.515Z,100237.00
2022-08-01T07:30:22.309Z,100229.41
2022-08-01T07:35:26.431Z,100224.75
2022-08-01T07:40:29.363Z,100228.16
2022-08-01T07:45:32.211Z,100229.16
2022-08-01T07:50:36.433Z,100233.91
2022-08-01T07:55:39.208Z,100238.50
2022-08-01T08:00:41.936Z,100232.09
2022-08-01T08:05:58.461Z,100231.41
2022-08-01T08:11:02.745Z,100230.25
2022-08-01T08:16:05.874Z,100251.78
2022-08-01T08:21:09.936Z,100253.41
2022-08-01T08:26:12.755Z,100257.44
2022-08-01T08:31:50.915Z,100259.16
2022-08-01T08:36:39.619Z,100264.53
2022-08-01T08:41:50.809Z,100260.50
2022-08-01T08:46:53.953Z,100255.13
2022-08-01T08:52:01.799Z,100263.81
2022-08-01T08:57:04.889Z,100267.03
2022-08-01T09:02:08.878Z,100264.25
2022-08-01T09:07:14.982Z,100267.31
2022-08-01T09:12:18.693Z,100272.03
2022-08-01T09:17:21.852Z,100278.44
2022-08-01T09:22:26.280Z,100275.50
2022-08-01T09:27:29.059Z,100273.81
2022-08-01T09:32:35.716Z,100275.81
2022-08-01T09:37:40.370Z,100276.56
2022-08-01T09:42:52.741Z,100279.06
2022-08-01T09:47:55.484Z,100276.38
2022-08-01T09:52:59.631Z,100267.81
2022-08-01T09:58:02.732Z,100273.38
2022-08-01T10:03:21.092Z,100278.66
2022-08-01T10:08:26.674Z,100290.03
2022-08-01T10:13:36.641Z,100287.34
2022-08-01T10:18:39.743Z,100285.91
2022-08-01T10:23:43.876Z,100296.97
2022-08-01T10:28:46.705Z,100293.72
2022-08-01T10:33:51.312Z,100295.88
2022-08-01T10:38:57.675Z,100287.69
2022-08-01T10:44:02.421Z,100288.28
2022-08-01T10:49:06.659Z,100286.59
2022-08-01T10:54:12.575Z,100284.75
2022-08-01T10:59:16.858Z,100288.47
2022-08-01T11:04:35.579Z,100277.94
2022-08-01T11:09:46.958Z,100278.22
2022-08-01T11:15:29.902Z,100274.81
2022-08-01T11:20:42.127Z,100280.94
2022-08-01T11:26:10.909Z,100271.97
2022-08-01T11:31:27.771Z,100275.09
2022-08-01T11:36:55.857Z,100280.47
2022-08-01T11:41:55.788Z,100285.31
2022-08-01T11:47:01.198Z,100281.63
2022-08-01T11:52:06.590Z,100277.91
2022-08-01T11:57:11.623Z,100280.63
2022-08-01T12:02:30.690Z,100278.06
2022-08-01T12:07:34.301Z,100283.59
2022-08-01T12:12:39.252Z,100284.47
2022-08-01T12:17:45.844Z,100273.91
2022-08-01T12:23:02.972Z,100281.59
2022-08-01T12:28:07.894Z,100284.09
2022-08-01T12:33:11.531Z,100284.09
2022-08-01T12:38:16.248Z,100280.53
2022-08-01T12:43:28.615Z,100284.38
2022-08-01T12:48:32.137Z,100285.69
2022-08-01T12:53:40.256Z,100297.47
2022-08-01T12:58:45.718Z,100290.38
2022-08-01T13:03:59.333Z,100296.63
2022-08-01T13:09:07.063Z,100297.72
2022-08-01T13:14:11.562Z,100297.47
2022-08-01T13:19:14.829Z,100291.44
2022-08-01T13:24:17.886Z,100286.78
2022-08-01T13:29:23.928Z,100292.41
2022-08-01T13:34:32.032Z,100297.97
2022-08-01T13:39:45.318Z,100303.22
2022-08-01T13:44:49.609Z,100295.97
2022-08-01T13:49:52.448Z,100287.56
2022-08-01T13:54:55.654Z,100297.66
2022-08-01T14:00:00.840Z,100287.84
2022-08-01T14:05:03.662Z,100295.38
2022-08-01T14:10:19.557Z,100298.94
2022-08-01T14:15:38.712Z,100301.88
2022-08-01T14:20:42.532Z,100307.28
2022-08-01T14:26:00.477Z,100315.09
2022-08-01T14:31:08.598Z,100314.41
2022-08-01T14:36:31.053Z,100311.94
2022-08-01T14:41:34.297Z,100312.28
2022-08-01T14:46:38.521Z,100315.31
2022-08-01T14:52:00.257Z,100309.06
2022-08-01T14:57:04.194Z,100313.84
2022-08-01T15:02:10.647Z,100318.06
2022-08-01T15:07:13.585Z,100321.91
2022-08-01T15:12:16.565Z,100324.75
2022-08-01T15:17:21.472Z,100333.03
2022-08-01T15:22:25.902Z,100328.72
2022-08-01T15:27:29.048Z,100329.66
2022-08-01T15:32:33.205Z,100330.13
2022-08-01T15:37:40.837Z,100335.06
2022-08-01T15:42:46.155Z,100336.03
2022-08-01T15:47:50.423Z,100338.53
2022-08-01T15:52:53.162Z,100336.44
2022-08-01T15:57:56.424Z,100331.94
2022-08-01T16:03:00.512Z,100329.41
2022-08-01T16:08:03.363Z,100320.38
2022-08-01T16:13:07.085Z,100326.63
2022-08-01T16:18:13.588Z,100327.31
2022-08-01T16:23:16.312Z,100328.25
2022-08-01T16:28:19.291Z,100333.75
2022-08-01T16:33:46.965Z,100340.41
2022-08-01T16:38:46.357Z,100336.38
2022-08-01T16:43:53.318Z,100333.13
2022-08-01T16:48:58.959Z,100330.44
2022-08-01T16:54:02.216Z,100320.97
2022-08-01T16:59:04.943Z,100321.31
2022-08-01T17:04:09.004Z,100330.13
2022-08-01T17:09:11.766Z,100335.19
2022-08-01T17:14:14.505Z,100335.16
2022-08-01T17:19:18.927Z,100332.25
2022-08-01T17:24:21.671Z,100345.34
2022-08-01T17:29:24.567Z,100345.88
2022-08-01T17:34:28.727Z,100340.34
2022-08-01T17:39:38.631Z,100332.25
2022-08-01T17:44:48.970Z,100340.63
2022-08-01T17:49:55.140Z,100343.34
2022-08-01T17:54:58.843Z,100347.75
2022-08-01T18:00:01.673Z,100355.34
2022-08-01T18:05:09.612Z,100350.53
2022-08-01T18:10:13.674Z,100360.81
2022-08-01T18:15:24.541Z,100362.53
2022-08-01T18:20:31.361Z,100366.00
2022-08-01T18:25:34.398Z,100372.44
2022-08-01T18:30:37.137Z,100376.59
2022-08-01T18:35:51.798Z,100381.50
2022-08-01T18:40:55.873Z,100373.97
2022-08-01T18:45:58.903Z,100374.75
2022-08-01T18:51:03.022Z,100385.56
2022-08-01T18:56:11.682Z,100394.72
2022-08-01T19:01:15.039Z,100405.28
2022-08-01T19:06:19.313Z,100407.72
2022-08-01T19:11:22.144Z,100415.88
2022-08-01T19:16:25.019Z,100423.84
2022-08-01T19:21:29.135Z,100435.13
2022-08-01T19:26:31.856Z,100447.56
2022-08-01T19:31:34.603Z,100444.19
2022-08-01T19:36:38.717Z,100439.34
2022-08-01T19:41:41.630Z,100445.78
2022-08-01T19:46:44.635Z,100460.75
2022-08-01T19:51:50.165Z,100458.66
2022-08-01T19:56:52.923Z,100462.50
2022-08-01T20:01:56.738Z,100463.66
2022-08-01T20:07:00.823Z,100467.00
2022-08-01T20:12:03.625Z,100472.19
2022-08-01T20:17:07.468Z,100476.41
2022-08-01T20:22:11.516Z,100479.78
2022-08-01T20:27:15.601Z,100482.25
2022-08-01T20:32:18.649Z,100489.97
2022-08-01T20:38:05.391Z,100502.75
2022-08-01T20:42:45.736Z,100513.44
2022-08-01T20:47:48.665Z,100518.28
2022-08-01T20:52:52.720Z,100518.56
2022-08-01T20:57:55.480Z,100528.13
2022-08-01T21:03:02.665Z,100531.41
2022-08-01T21:08:09.270Z,100529.88
2022-08-01T21:13:20.599Z,100530.09
2022-08-01T21:18:26.107Z,100540.06
2022-08-01T21:23:32.513Z,100535.81
2022-08-01T21:28:35.278Z,100535.13
2022-08-01T21:33:38.114Z,100540.53
2022-08-01T21:39:02.506Z,100536.81
2022-08-01T21:44:05.637Z,100532.56
2022-08-01T21:49:08.846Z,100537.38
2022-08-01T21:54:17.635Z,100533.00
2022-08-01T21:59:23.741Z,100532.56
2022-08-01T22:04:29.191Z,100536.25
2022-08-01T22:09:33.481Z,100545.28
2022-08-01T22:14:36.790Z,100545.06
2022-08-01T22:19:45.565Z,100554.03
2022-08-01T22:24:50.821Z,100557.88
2022-08-01T22:29:57.401Z,100557.47
2022-08-01T22:35:00.579Z,100564.31
2022-08-01T22:40:06.778Z,100564.06
2022-08-01T22:45:12.544Z,100558.50
2022-08-01T22:50:18.219Z,100555.97
2022-08-01T22:55:58.684Z,100567.34
2022-08-01T23:01:02.596Z,100568.09
2022-08-01T23:06:07.975Z,100582.06
2022-08-01T23:11:12.087Z,100581.19
2022-08-01T23:16:17.547Z,100580.88
2022-08-01T23:21:20.479Z,100581.19
2022-08-01T23:26:24.604Z,100591.03
2022-08-01T23:32:02.794Z,100580.81
2022-08-01T23:36:50.559Z,100569.84
2022-08-01T23:42:07.798Z,100584.66
2022-08-01T23:47:10.799Z,100575.91
2022-08-01T23:52:20.810Z,100567.94
2022-08-01T23:57:25.880Z,100554.44
